Pagrindinis puslapis
METAR-TAF:

METAR-TAF

Oro uostai :

Salala, Omanas

platuma: 17-02N, ilguma: 054-05E, Aukštis: 20 m

Dabartinis oras

Ataskaita buvo paskelbta 48 minutes, ne 12:50 UTC
Vėjas 7 kt iš Pietryčių, svyruoja nuo Rytų ir Pietų
Temperatūra 27°C
Drėgmė 66%
Slėgis 1013 hPa
Matomumas 10 km arba daugiau
Mažai debesys ne aukštis 2500 ft

METAR: OOSA 151250Z 13007KT 080V180 9999 FEW025 27/20 Q1013 NOSIG

Laikas: 17:38 (13:38 UTC)

Prognozė

Ataskaita buvo paskelbta 1 valandą ir 58 minutes, ne 11:40 UTC
Prognozė galioja nuo 15 metu 12 UTC su 16 metu 18 UTC
Vėjas 9 kt iš Pietų/Pietryčių
Matomumas 10 km arba daugiau
Mažai debesys ne aukštis 2500 ft
Tapsmas
nuo 15 metu 15 UTC su 15 metu 17 UTC
Vėjas 3 kt nuo kintamojo kryptimis
Tapsmas
nuo 16 metu 07 UTC su 16 metu 09 UTC
Vėjas 8 kt iš Pietų/Pietryčių
Tapsmas
nuo 16 metu 16 UTC su 16 metu 18 UTC
Vėjas 3 kt nuo kintamojo kryptimis

TAF: OOSA 151140Z 1512/1618 16009KT 9999 FEW025 BECMG 1515/1517 VRB03KT BECMG 1607/1609 15008KT BECMG 1616/1618 VRB03KT

Orai ataskaitas ir orų prognozės (METAR, TAF).

turimą stotys yra geltonos ir raudonos taškus žemėlapyje.

Perkelti pele per norėdami pamatyti stoties vardą.

Tada spustelėkite, norėdami matyti oro stebėjimo ir prognozės.

Norėdami pakeisti žemėlapį: spustelėkite ant žalios mygtukų su juodo kryžiaus žemyn,; žalią mygtuką su brūkšneliu, jei norite nutolinti; arba žalių rodyklių gretimoms žemėlapius.


METAR-TAF: